createdAt,value
2019-04-29T00:00:20.758Z,3.60
2019-04-29T00:02:47.340Z,3.60
2019-04-29T00:05:14.285Z,3.70
2019-04-29T00:07:40.960Z,3.05
2019-04-29T00:10:07.574Z,3.60
2019-04-29T00:12:34.154Z,3.12
2019-04-29T00:15:00.878Z,2.98
2019-04-29T00:17:27.513Z,3.22
2019-04-29T00:19:54.130Z,3.50
2019-04-29T00:22:20.705Z,3.00
2019-04-29T00:24:47.302Z,3.35
2019-04-29T00:27:13.871Z,2.85
2019-04-29T00:29:40.469Z,2.95
2019-04-29T00:32:07.045Z,2.92
2019-04-29T00:34:33.668Z,3.15
2019-04-29T00:37:00.302Z,2.55
2019-04-29T00:39:26.873Z,3.25
2019-04-29T00:41:53.484Z,2.95
2019-04-29T00:44:20.056Z,2.45
2019-04-29T00:46:46.682Z,2.60
2019-04-29T00:49:13.251Z,2.92
2019-04-29T00:51:39.827Z,2.92
2019-04-29T00:54:06.486Z,3.25
2019-04-29T00:56:33.064Z,2.92
2019-04-29T00:58:59.640Z,2.95
2019-04-29T01:01:26.238Z,3.17
2019-04-29T01:03:52.822Z,2.77
2019-04-29T01:06:19.421Z,3.15
2019-04-29T01:08:46.079Z,2.62
2019-04-29T01:11:12.699Z,2.45
2019-04-29T01:13:39.271Z,3.12
2019-04-29T01:16:05.864Z,2.45
2019-04-29T01:18:32.438Z,2.67
2019-04-29T01:20:59.045Z,2.98
2019-04-29T01:23:25.623Z,4.05
2019-04-29T01:25:52.220Z,4.30
2019-04-29T01:28:18.799Z,3.58
2019-04-29T01:30:45.410Z,3.42
2019-04-29T01:33:11.990Z,3.27
2019-04-29T01:35:38.596Z,2.92
2019-04-29T01:38:05.179Z,2.95
2019-04-29T01:40:31.859Z,4.40
2019-04-29T01:42:58.434Z,4.60
2019-04-29T01:45:25.089Z,4.53
2019-04-29T01:47:51.700Z,4.47
2019-04-29T01:50:18.272Z,4.80
2019-04-29T01:52:44.861Z,3.40
2019-04-29T01:55:11.446Z,2.35
2019-04-29T01:57:38.058Z,2.98
2019-04-29T02:00:04.638Z,2.17
2019-04-29T02:02:31.231Z,2.00
2019-04-29T02:04:57.795Z,2.00
2019-04-29T02:07:24.391Z,2.83
2019-04-29T02:09:50.970Z,3.00
2019-04-29T02:12:17.582Z,2.58
2019-04-29T02:14:44.162Z,2.75
2019-04-29T02:17:10.775Z,2.25
2019-04-29T02:19:37.345Z,2.60
2019-04-29T02:22:03.943Z,2.20
2019-04-29T02:24:30.509Z,2.30
2019-04-29T02:26:57.144Z,2.85
2019-04-29T02:29:23.715Z,2.37
2019-04-29T02:31:50.334Z,2.80
2019-04-29T02:34:16.909Z,2.52
2019-04-29T02:36:43.517Z,2.30
2019-04-29T02:39:10.102Z,2.47
2019-04-29T02:41:36.925Z,2.37
2019-04-29T02:44:03.529Z,2.52
2019-04-29T02:46:30.144Z,3.10
2019-04-29T02:48:56.727Z,2.08
2019-04-29T02:51:23.329Z,3.17
2019-04-29T02:53:49.899Z,2.12
2019-04-29T02:56:16.606Z,2.70
2019-04-29T02:58:43.200Z,2.00
2019-04-29T03:01:09.816Z,2.27
2019-04-29T03:03:36.472Z,2.00
2019-04-29T03:06:03.049Z,2.58
2019-04-29T03:08:29.706Z,2.27
2019-04-29T03:10:56.296Z,2.70
2019-04-29T03:13:22.891Z,2.60
2019-04-29T03:15:49.467Z,2.05
2019-04-29T03:18:16.081Z,1.92
2019-04-29T03:20:42.682Z,2.55
2019-04-29T03:23:09.321Z,1.98
2019-04-29T03:25:35.892Z,2.65
2019-04-29T03:28:02.496Z,2.50
2019-04-29T03:30:29.087Z,1.85
2019-04-29T03:32:55.699Z,2.02
2019-04-29T03:35:22.282Z,2.10
2019-04-29T03:37:49.046Z,2.27
2019-04-29T03:40:15.616Z,2.62
2019-04-29T03:42:42.222Z,2.52
2019-04-29T03:45:08.792Z,2.40
2019-04-29T03:47:35.385Z,2.85
2019-04-29T03:50:01.966Z,2.27
2019-04-29T03:52:28.559Z,2.00
2019-04-29T03:54:55.134Z,1.90
2019-04-29T03:57:21.702Z,2.20
2019-04-29T03:59:48.310Z,2.45
2019-04-29T04:02:15.067Z,2.52
2019-04-29T04:04:41.675Z,3.17
2019-04-29T04:07:08.243Z,4.00
2019-04-29T04:09:34.854Z,6.70
2019-04-29T04:12:01.425Z,6.05
2019-04-29T04:14:28.055Z,6.20
2019-04-29T04:16:54.631Z,7.03
2019-04-29T04:19:21.252Z,6.05
2019-04-29T04:21:47.829Z,4.75
2019-04-29T04:24:14.430Z,5.60
2019-04-29T04:26:41.014Z,5.75
2019-04-29T04:29:07.618Z,5.35
2019-04-29T04:31:34.187Z,3.55
2019-04-29T04:34:00.796Z,2.72
2019-04-29T04:36:27.365Z,3.22
2019-04-29T04:38:53.974Z,2.70
2019-04-29T04:41:20.551Z,2.00
2019-04-29T04:43:47.165Z,2.30
2019-04-29T04:46:13.757Z,2.77
2019-04-29T04:48:40.362Z,2.87
2019-04-29T04:51:06.940Z,2.17
2019-04-29T04:53:33.565Z,2.10
2019-04-29T04:56:00.134Z,2.70
2019-04-29T04:58:26.753Z,2.40
2019-04-29T05:00:53.322Z,1.82
2019-04-29T05:03:19.916Z,2.17
2019-04-29T05:05:46.482Z,3.08
2019-04-29T05:08:13.064Z,2.42
2019-04-29T05:10:39.669Z,3.02
2019-04-29T05:13:06.226Z,2.62
2019-04-29T05:15:32.838Z,2.92
2019-04-29T05:17:59.415Z,2.37
2019-04-29T05:20:26.015Z,2.17
2019-04-29T05:22:52.580Z,2.60
2019-04-29T05:25:19.189Z,2.47
2019-04-29T05:27:45.761Z,2.40
2019-04-29T05:30:12.384Z,2.42
2019-04-29T05:32:38.945Z,2.33
2019-04-29T05:35:05.633Z,2.62
2019-04-29T05:37:32.207Z,3.85
2019-04-29T05:39:58.794Z,2.75
2019-04-29T05:42:25.379Z,2.60
2019-04-29T05:44:52.011Z,3.22
2019-04-29T05:47:18.579Z,3.70
2019-04-29T05:49:45.177Z,3.83
2019-04-29T05:52:11.761Z,2.83
2019-04-29T05:54:38.392Z,3.45
2019-04-29T05:57:04.978Z,2.35
2019-04-29T05:59:31.588Z,2.35
2019-04-29T06:01:58.164Z,2.17
2019-04-29T06:04:24.737Z,2.37
2019-04-29T06:06:51.344Z,1.98
2019-04-29T06:09:19.666Z,1.77
2019-04-29T06:11:46.260Z,2.20
2019-04-29T06:14:12.887Z,1.75
2019-04-29T06:16:39.508Z,2.65
2019-04-29T06:19:06.127Z,1.80
2019-04-29T06:21:32.768Z,2.00
2019-04-29T06:24:04.123Z,1.50
2019-04-29T06:26:27.698Z,1.87
2019-04-29T06:28:54.263Z,1.57
2019-04-29T06:31:20.898Z,1.92
2019-04-29T06:33:47.457Z,1.60
2019-04-29T06:36:14.072Z,1.60
2019-04-29T06:38:40.650Z,1.98
2019-04-29T06:41:09.734Z,2.00
2019-04-29T06:43:35.572Z,1.65
2019-04-29T06:46:02.203Z,1.65
2019-04-29T06:48:28.771Z,2.02
2019-04-29T06:50:55.370Z,1.65
2019-04-29T06:53:23.246Z,1.62
2019-04-29T06:55:50.032Z,2.10
2019-04-29T06:58:16.669Z,1.95
2019-04-29T07:00:43.310Z,1.45
2019-04-29T07:03:09.924Z,1.57
2019-04-29T07:05:36.544Z,1.75
2019-04-29T07:08:03.122Z,1.60
2019-04-29T07:10:29.726Z,1.77
2019-04-29T07:12:59.008Z,1.80
2019-04-29T07:15:25.628Z,1.80
2019-04-29T07:17:52.274Z,1.60
2019-04-29T07:20:18.868Z,2.45
2019-04-29T07:22:45.436Z,2.00
2019-04-29T07:25:12.031Z,1.85
2019-04-29T07:27:43.101Z,2.42
2019-04-29T07:30:08.322Z,1.42
2019-04-29T07:32:35.143Z,1.82
2019-04-29T07:35:01.732Z,1.60
2019-04-29T07:37:29.779Z,1.47
2019-04-29T07:39:56.861Z,2.33
2019-04-29T07:42:25.110Z,1.60
2019-04-29T07:44:52.823Z,2.08
2019-04-29T07:47:20.118Z,1.75
2019-04-29T07:49:51.323Z,1.22
2019-04-29T07:52:16.151Z,1.70
2019-04-29T07:54:43.000Z,1.80
2019-04-29T07:57:12.425Z,1.20
2019-04-29T07:59:39.613Z,1.67
2019-04-29T08:02:06.291Z,1.72
2019-04-29T08:04:32.872Z,1.80
2019-04-29T08:06:59.461Z,1.65
2019-04-29T08:09:26.036Z,1.52
2019-04-29T08:11:52.665Z,2.17
2019-04-29T08:14:19.300Z,2.15
2019-04-29T08:16:46.202Z,1.62
2019-04-29T08:19:12.780Z,1.67
2019-04-29T08:21:39.390Z,2.12
2019-04-29T08:24:05.961Z,2.20
2019-04-29T08:26:33.636Z,2.50
2019-04-29T08:29:01.703Z,2.47
2019-04-29T08:31:28.425Z,2.50
2019-04-29T08:33:55.035Z,2.47
2019-04-29T08:36:21.641Z,2.85
2019-04-29T08:38:48.218Z,2.77
2019-04-29T08:41:14.833Z,4.67
2019-04-29T08:43:41.425Z,4.00
2019-04-29T08:46:08.022Z,4.60
2019-04-29T08:48:34.606Z,2.85
2019-04-29T08:51:01.173Z,2.50
2019-04-29T08:53:27.775Z,1.90
2019-04-29T08:55:54.397Z,2.08
2019-04-29T08:58:21.135Z,1.95
2019-04-29T09:00:51.296Z,2.22
2019-04-29T09:03:18.746Z,1.75
2019-04-29T09:05:46.231Z,1.77
2019-04-29T09:08:13.569Z,1.95
2019-04-29T09:10:40.237Z,2.17
2019-04-29T09:13:06.844Z,2.20
2019-04-29T09:15:33.447Z,3.72
2019-04-29T09:18:00.047Z,2.50
2019-04-29T09:20:26.616Z,3.50
2019-04-29T09:22:53.232Z,3.55
2019-04-29T09:25:28.046Z,3.02
2019-04-29T09:27:56.422Z,3.20
2019-04-29T09:30:23.238Z,2.47
2019-04-29T09:32:49.851Z,2.12
2019-04-29T09:35:16.449Z,2.65
2019-04-29T09:37:43.090Z,2.80
2019-04-29T09:40:09.702Z,2.50
2019-04-29T09:42:36.353Z,2.77
2019-04-29T09:45:02.960Z,3.05
2019-04-29T09:47:29.629Z,2.55
2019-04-29T09:49:56.233Z,2.83
2019-04-29T09:52:22.811Z,3.35
2019-04-29T09:54:49.405Z,2.40
2019-04-29T09:57:15.980Z,3.52
2019-04-29T09:59:42.581Z,2.92
2019-04-29T10:02:09.159Z,3.00
2019-04-29T10:04:35.768Z,3.05
2019-04-29T10:07:02.345Z,2.98
2019-04-29T10:09:28.936Z,3.08
2019-04-29T10:11:55.523Z,3.33
2019-04-29T10:14:22.118Z,2.90
2019-04-29T10:16:51.388Z,2.20
2019-04-29T10:19:17.120Z,2.72
2019-04-29T10:21:43.708Z,3.90
2019-04-29T10:24:10.295Z,2.50
2019-04-29T10:26:36.910Z,3.60
2019-04-29T10:29:03.586Z,2.77
2019-04-29T10:31:30.156Z,3.47
2019-04-29T10:33:56.760Z,3.47
2019-04-29T10:36:26.078Z,3.85
2019-04-29T10:38:51.676Z,3.05
2019-04-29T10:41:18.266Z,3.55
2019-04-29T10:43:44.953Z,3.05
2019-04-29T10:46:11.530Z,3.85
2019-04-29T10:48:38.109Z,2.77
2019-04-29T10:51:04.716Z,3.12
2019-04-29T10:53:31.290Z,2.72
2019-04-29T10:56:00.917Z,2.80
2019-04-29T10:58:30.218Z,3.75
2019-04-29T11:00:57.314Z,3.67
2019-04-29T11:03:24.986Z,3.20
2019-04-29T11:06:00.357Z,3.42
2019-04-29T11:08:19.510Z,3.12
2019-04-29T11:10:46.381Z,3.45
2019-04-29T11:13:16.356Z,3.33
2019-04-29T11:15:44.823Z,3.40
2019-04-29T11:18:11.282Z,3.83
2019-04-29T11:20:37.900Z,4.42
2019-04-29T11:23:09.141Z,3.92
2019-04-29T11:25:33.901Z,3.55
2019-04-29T11:28:00.478Z,4.72
2019-04-29T11:30:27.087Z,3.12
2019-04-29T11:32:53.654Z,3.85
2019-04-29T11:35:20.331Z,4.12
2019-04-29T11:37:49.965Z,4.37
2019-04-29T11:40:15.228Z,4.83
2019-04-29T11:42:42.067Z,4.40
2019-04-29T11:45:08.686Z,3.60
2019-04-29T11:47:35.265Z,4.40
2019-04-29T11:50:01.851Z,4.12
2019-04-29T11:52:29.300Z,4.65
2019-04-29T11:54:55.903Z,5.10
2019-04-29T11:57:22.518Z,4.70
2019-04-29T11:59:49.091Z,5.30
2019-04-29T12:02:15.733Z,5.05
2019-04-29T12:04:42.518Z,5.83
2019-04-29T12:07:09.185Z,5.85
2019-04-29T12:09:35.754Z,5.35
2019-04-29T12:12:02.356Z,4.30
2019-04-29T12:14:28.936Z,4.55
2019-04-29T12:16:55.531Z,4.35
2019-04-29T12:19:22.598Z,4.72
2019-04-29T12:21:49.421Z,3.87
2019-04-29T12:24:15.985Z,5.10
2019-04-29T12:26:45.026Z,5.35
2019-04-29T12:29:13.758Z,4.92
2019-04-29T12:31:40.102Z,4.90
2019-04-29T12:34:06.679Z,5.72
2019-04-29T12:36:36.763Z,5.70
2019-04-29T12:39:01.596Z,6.28
2019-04-29T12:41:30.237Z,6.22
2019-04-29T12:43:59.427Z,7.08
2019-04-29T12:46:24.797Z,7.17
2019-04-29T12:48:51.433Z,7.25
2019-04-29T12:51:18.009Z,7.65
2019-04-29T12:53:44.899Z,7.30
2019-04-29T12:56:12.749Z,6.12
2019-04-29T12:58:39.498Z,6.17
2019-04-29T13:01:06.170Z,6.17
2019-04-29T13:03:39.547Z,5.55
2019-04-29T13:06:02.603Z,4.87
2019-04-29T13:08:29.376Z,5.85
2019-04-29T13:10:55.957Z,5.40
2019-04-29T13:13:22.536Z,5.62
2019-04-29T13:15:49.744Z,6.00
2019-04-29T13:18:23.071Z,6.33
2019-04-29T13:20:45.638Z,6.50
2019-04-29T13:23:17.850Z,7.97
2019-04-29T13:25:42.352Z,7.30
2019-04-29T13:28:08.929Z,7.53
2019-04-29T13:30:35.542Z,7.12
2019-04-29T13:33:05.943Z,6.60
2019-04-29T13:35:30.525Z,6.87
2019-04-29T13:37:57.105Z,7.95
2019-04-29T13:40:23.728Z,9.13
2019-04-29T13:42:51.049Z,10.30
2019-04-29T13:45:24.279Z,8.80
2019-04-29T13:47:50.222Z,7.58
2019-04-29T13:50:20.118Z,7.97
2019-04-29T13:52:42.703Z,8.43
2019-04-29T13:55:17.037Z,8.68
2019-04-29T13:57:37.619Z,8.83
2019-04-29T14:00:04.239Z,7.90
2019-04-29T14:02:36.270Z,8.98
2019-04-29T14:05:00.168Z,8.65
2019-04-29T14:07:27.424Z,7.85
2019-04-29T14:09:54.034Z,9.40
2019-04-29T14:14:49.049Z,7.80
2019-04-29T14:17:25.906Z,9.33
2019-04-29T14:19:43.963Z,9.70
2019-04-29T14:22:21.373Z,9.20
2019-04-29T14:24:38.884Z,10.68
2019-04-29T14:27:05.501Z,8.13
2019-04-29T14:29:32.159Z,8.68
2019-04-29T14:32:00.861Z,9.30
2019-04-29T14:34:30.628Z,8.68
2019-04-29T14:36:57.471Z,10.32
2019-04-29T14:39:36.818Z,9.35
2019-04-29T14:41:55.406Z,9.35
2019-04-29T14:44:20.318Z,10.93
2019-04-29T14:46:47.351Z,9.85
2019-04-29T14:49:13.937Z,8.95
2019-04-29T14:51:40.535Z,10.75
2019-04-29T14:54:07.508Z,9.20
2019-04-29T14:56:34.306Z,9.20
2019-04-29T14:59:07.140Z,8.05
2019-04-29T15:01:29.278Z,10.90
2019-04-29T15:03:55.906Z,11.55
2019-04-29T15:06:22.600Z,11.50
2019-04-29T15:08:49.235Z,10.32
2019-04-29T15:11:15.920Z,10.30
2019-04-29T15:13:43.193Z,11.83
2019-04-29T15:16:14.001Z,10.05
2019-04-29T15:18:47.796Z,10.63
2019-04-29T15:21:08.481Z,10.70
2019-04-29T15:23:35.588Z,11.95
2019-04-29T15:26:02.166Z,12.10
2019-04-29T15:28:28.786Z,10.78
2019-04-29T15:30:55.366Z,11.73
2019-04-29T15:33:21.980Z,11.12
2019-04-29T15:35:48.576Z,10.32
2019-04-29T15:38:15.169Z,11.97
2019-04-29T15:40:42.956Z,12.13
2019-04-29T15:43:09.932Z,12.60
2019-04-29T15:45:36.486Z,12.00
2019-04-29T15:48:03.092Z,10.25
2019-04-29T15:50:32.748Z,12.28
2019-04-29T15:52:58.724Z,11.73
2019-04-29T15:55:26.319Z,11.55
2019-04-29T15:57:53.283Z,12.23
2019-04-29T16:00:22.438Z,13.35
2019-04-29T16:02:48.324Z,11.20
2019-04-29T16:05:15.030Z,12.10
2019-04-29T16:07:46.551Z,10.75
2019-04-29T16:10:14.494Z,9.38
2019-04-29T16:12:38.406Z,10.55
2019-04-29T16:15:04.974Z,10.35
2019-04-29T16:17:37.406Z,10.05
2019-04-29T16:19:59.974Z,11.30
2019-04-29T16:22:26.585Z,8.55
2019-04-29T16:24:59.166Z,9.98
2019-04-29T16:27:21.766Z,9.45
2019-04-29T16:29:51.615Z,12.20
2019-04-29T16:32:16.682Z,9.60
2019-04-29T16:34:45.143Z,12.30
2019-04-29T16:37:18.516Z,11.03
2019-04-29T16:39:40.908Z,11.93
2019-04-29T16:42:07.524Z,9.70
2019-04-29T16:44:36.282Z,11.18
2019-04-29T16:47:07.544Z,10.30
2019-04-29T16:49:31.348Z,10.75
2019-04-29T16:51:57.931Z,10.72
2019-04-29T16:54:28.361Z,10.28
2019-04-29T16:56:52.818Z,9.63
2019-04-29T16:59:19.548Z,11.45
2019-04-29T17:01:46.130Z,11.05
2019-04-29T17:04:12.839Z,10.32
2019-04-29T17:06:41.676Z,8.33
2019-04-29T17:09:07.748Z,10.13
2019-04-29T17:11:34.327Z,8.25
2019-04-29T17:14:03.355Z,10.10
2019-04-29T17:16:29.266Z,9.55
2019-04-29T17:18:56.071Z,8.80
2019-04-29T17:21:22.643Z,8.88
2019-04-29T17:23:49.252Z,10.58
2019-04-29T17:26:15.847Z,9.43
2019-04-29T17:28:42.463Z,8.20
2019-04-29T17:31:12.543Z,9.78
2019-04-29T17:33:37.936Z,10.00
2019-04-29T17:36:05.676Z,10.13
2019-04-29T17:38:32.258Z,9.05
2019-04-29T17:40:58.950Z,12.10
2019-04-29T17:43:25.527Z,10.38
2019-04-29T17:45:52.145Z,10.75
2019-04-29T17:48:19.545Z,10.95
2019-04-29T17:50:47.831Z,11.33
2019-04-29T17:53:15.288Z,11.03
2019-04-29T17:55:42.205Z,12.30
2019-04-29T17:58:08.801Z,13.85
2019-04-29T18:00:42.257Z,11.50
2019-04-29T18:03:05.296Z,12.10
2019-04-29T18:05:34.482Z,13.35
2019-04-29T18:08:00.404Z,13.85
2019-04-29T18:10:29.513Z,14.50
2019-04-29T18:12:56.729Z,21.82
2019-04-29T18:15:23.516Z,18.92
2019-04-29T18:17:50.123Z,17.75
2019-04-29T18:20:29.757Z,14.55
2019-04-29T18:22:46.444Z,15.55
2019-04-29T18:25:13.032Z,14.63
2019-04-29T18:27:39.651Z,12.80
2019-04-29T18:30:07.162Z,12.60
2019-04-29T18:32:36.401Z,18.00
2019-04-29T18:35:02.243Z,18.82
2019-04-29T18:37:30.443Z,18.12
2019-04-29T18:39:57.668Z,20.00
2019-04-29T18:42:27.170Z,19.02
2019-04-29T18:44:59.839Z,23.25
2019-04-29T18:47:23.040Z,21.00
2019-04-29T18:49:49.817Z,17.65
2019-04-29T18:52:25.438Z,15.08
2019-04-29T18:54:45.062Z,12.03
2019-04-29T18:57:11.705Z,12.07
2019-04-29T18:59:38.282Z,11.78
2019-04-29T19:02:07.813Z,12.50
2019-04-29T19:04:33.221Z,12.70
2019-04-29T19:07:02.401Z,12.13
2019-04-29T19:09:32.314Z,11.43
2019-04-29T19:11:56.598Z,14.18
2019-04-29T19:14:25.592Z,11.88
2019-04-29T19:16:52.732Z,12.05
2019-04-29T19:19:19.815Z,11.33
2019-04-29T19:21:47.517Z,11.80
2019-04-29T19:24:16.090Z,13.25
2019-04-29T19:26:42.495Z,14.20
2019-04-29T19:29:09.771Z,11.08
2019-04-29T19:31:46.063Z,12.65
2019-04-29T19:34:05.509Z,13.55
2019-04-29T19:36:32.351Z,13.30
2019-04-29T19:38:58.921Z,13.68
2019-04-29T19:41:25.645Z,15.30
2019-04-29T19:43:55.138Z,13.98
2019-04-29T19:46:24.844Z,16.55
2019-04-29T19:48:50.479Z,15.18
2019-04-29T19:51:18.648Z,18.67
2019-04-29T19:53:49.481Z,18.80
2019-04-29T19:56:20.906Z,17.32
2019-04-29T19:58:42.408Z,20.88
2019-04-29T20:01:13.426Z,18.90
2019-04-29T20:03:41.689Z,18.98
2019-04-29T20:06:08.946Z,18.02
2019-04-29T20:08:51.116Z,16.80
2019-04-29T20:11:13.763Z,17.73
2019-04-29T20:13:33.746Z,18.62
2019-04-29T20:16:09.935Z,20.40
2019-04-29T20:18:33.772Z,18.42
2019-04-29T20:21:08.459Z,14.90
2019-04-29T20:23:28.011Z,15.65
2019-04-29T20:26:05.554Z,16.10
2019-04-29T20:28:23.373Z,15.90
2019-04-29T20:30:54.472Z,17.45
2019-04-29T20:33:18.403Z,16.27
2019-04-29T20:35:49.000Z,16.77
2019-04-29T20:38:15.548Z,17.00
2019-04-29T20:40:43.482Z,16.12
2019-04-29T20:43:10.217Z,16.35
2019-04-29T20:45:36.886Z,18.45
2019-04-29T20:48:03.569Z,14.45
2019-04-29T20:50:30.313Z,17.48
2019-04-29T20:53:01.888Z,18.30
2019-04-29T20:55:25.600Z,14.75
2019-04-29T20:57:52.718Z,13.83
2019-04-29T21:00:24.785Z,14.95
2019-04-29T21:02:49.181Z,14.43
2019-04-29T21:05:23.199Z,14.73
2019-04-29T21:07:44.278Z,14.95
2019-04-29T21:10:10.895Z,13.53
2019-04-29T21:12:38.415Z,14.13
2019-04-29T21:15:07.432Z,13.40
2019-04-29T21:17:35.231Z,15.18
2019-04-29T21:20:01.893Z,14.55
2019-04-29T21:22:28.467Z,14.78
2019-04-29T21:24:55.272Z,14.70
2019-04-29T21:27:23.396Z,12.53
2019-04-29T21:29:54.070Z,13.43
2019-04-29T21:32:18.588Z,13.50
2019-04-29T21:34:45.312Z,11.70
2019-04-29T21:37:11.952Z,13.13
2019-04-29T21:39:38.553Z,12.28
2019-04-29T21:42:05.738Z,15.63
2019-04-29T21:44:32.506Z,11.38
2019-04-29T21:46:59.577Z,10.10
2019-04-29T21:49:27.412Z,12.28
2019-04-29T21:51:55.529Z,10.68
2019-04-29T21:54:22.235Z,10.68
2019-04-29T21:56:48.871Z,11.25
2019-04-29T21:59:15.825Z,11.80
2019-04-29T22:01:42.554Z,11.03
2019-04-29T22:04:09.176Z,11.83
2019-04-29T22:06:35.802Z,11.60
2019-04-29T22:09:02.667Z,10.90
2019-04-29T22:11:29.369Z,8.33
2019-04-29T22:13:55.943Z,9.85
2019-04-29T22:16:22.556Z,12.13
2019-04-29T22:18:52.005Z,12.60
2019-04-29T22:21:22.122Z,9.55
2019-04-29T22:23:51.443Z,9.30
2019-04-29T22:26:18.279Z,10.55
2019-04-29T22:28:42.445Z,9.78
2019-04-29T22:31:09.043Z,9.10
2019-04-29T22:33:38.537Z,8.13
2019-04-29T22:36:05.302Z,10.18
2019-04-29T22:38:32.116Z,8.43
2019-04-29T22:40:58.725Z,8.98
2019-04-29T22:43:25.465Z,7.53
2019-04-29T22:45:52.074Z,8.15
2019-04-29T22:48:19.864Z,6.60
2019-04-29T22:50:47.385Z,7.80
2019-04-29T22:53:14.807Z,7.10
2019-04-29T22:55:41.562Z,7.50
2019-04-29T22:58:09.766Z,7.15
2019-04-29T23:00:36.466Z,6.72
2019-04-29T23:03:03.559Z,6.97
2019-04-29T23:05:30.318Z,7.30
2019-04-29T23:08:00.081Z,7.08
2019-04-29T23:10:27.901Z,6.75
2019-04-29T23:12:57.247Z,7.85
2019-04-29T23:15:23.628Z,6.30
2019-04-29T23:17:50.901Z,7.37
2019-04-29T23:20:20.684Z,6.17
2019-04-29T23:22:45.852Z,6.53
2019-04-29T23:25:12.420Z,6.92
2019-04-29T23:27:39.034Z,5.70
2019-04-29T23:30:05.617Z,6.58
2019-04-29T23:32:32.220Z,6.45
2019-04-29T23:35:01.709Z,7.25
2019-04-29T23:37:27.610Z,7.70
2019-04-29T23:39:55.814Z,7.05
2019-04-29T23:42:22.505Z,7.17
2019-04-29T23:44:49.192Z,7.00
2019-04-29T23:47:17.742Z,6.78
2019-04-29T23:49:44.957Z,7.25
2019-04-29T23:52:13.474Z,6.78
2019-04-29T23:54:45.641Z,6.45
2019-04-29T23:57:08.543Z,7.03
2019-04-29T23:59:35.347Z,6.45
